Portada
METAR-TAF:

METAR-TAF

Aeroports :

Douala, Camerun

latitud: 04-00N, longitud: 009-44E, altitud: 10 m

Observació

L'informe es va fer fa 1 hora i 0 minuts, a les 21:00 UTC
Vent calma
Temperatura 26°C
Humitat 94%
Pressió 1011 hPa
Visibilitat 10 km o més
Núvols disperses a una alçada de 1300 ft
Escasses núvols a una alçada de 1600 ft, Cumulonimbus.

METAR: FKKD 012100Z 00000KT 9999 SCT013 FEW016CB 26/25 Q1011 NOSIG

Hora: 23:00 (22:00 UTC)

Pronòstic

L'informe es va fer fa 5 hores i 0 minuts, a les 17:00 UTC
Pronòstic vàlid del 01 a les 18 UTC al 02 a les 24 UTC
Vent 3 kt amb direcció variable
Visibilitat 10 km o més
Cel ennuvolat a una alçada de 1300 ft
Escasses núvols a una alçada de 1600 ft, Cumulonimbus.
Probabilitat 40%
l' 01 a les 20 UTC al 01 a les 23 UTC
tempesta, pluja
Temporalment
l' 02 a les 04 UTC al 02 a les 08 UTC
Visibilitat: 4000 m
tempesta, boirina

TAF: FKKD 011700Z 0118/0224 VRB03KT 9999 BKN013 FEW016CB PROB40 0120/0123 -TSRA TEMPO 0204/0208 4000 TS BR

Observacions i pronòstics meteorològics de més de 4000 aeroports (METAR i TAF).

Les estacions disponibles són els punts grocs i vermells al mapa.

Posi el ratolí al punt desitjat per veure el nom de l'estació.

Feu clic per veure les observacions i els pronòstics meteorològics.

Per canviar el mapa: feu clic els botons verds amb una creu de color negre per apropar; al botó verd amb un guió per allunyar la imatge; o en les fletxes verdes per a mapes adjacents.


METAR-TAF: